sensor_id;sensor_type;location;lat;lon;timestamp;temperature;humidity
22379;DHT22;11357;49.990;7.370;2023-02-15T00:00:21;3.30;86.90
22379;DHT22;11357;49.990;7.370;2023-02-15T00:02:46;3.30;86.90
22379;DHT22;11357;49.990;7.370;2023-02-15T00:05:12;3.30;86.90
22379;DHT22;11357;49.990;7.370;2023-02-15T00:07:38;3.30;86.90
22379;DHT22;11357;49.990;7.370;2023-02-15T00:10:04;3.30;86.80
22379;DHT22;11357;49.990;7.370;2023-02-15T00:12:30;3.30;86.90
22379;DHT22;11357;49.990;7.370;2023-02-15T00:14:55;3.30;86.90
22379;DHT22;11357;49.990;7.370;2023-02-15T00:17:21;3.30;86.90
22379;DHT22;11357;49.990;7.370;2023-02-15T00:19:47;3.20;86.90
22379;DHT22;11357;49.990;7.370;2023-02-15T00:22:13;3.20;86.90
22379;DHT22;11357;49.990;7.370;2023-02-15T00:24:38;3.20;86.90
22379;DHT22;11357;49.990;7.370;2023-02-15T00:27:04;3.20;86.90
22379;DHT22;11357;49.990;7.370;2023-02-15T00:29:30;3.20;86.80
22379;DHT22;11357;49.990;7.370;2023-02-15T00:31:55;3.10;86.70
22379;DHT22;11357;49.990;7.370;2023-02-15T00:34:24;3.00;86.80
22379;DHT22;11357;49.990;7.370;2023-02-15T00:36:50;3.00;86.90
22379;DHT22;11357;49.990;7.370;2023-02-15T00:39:17;3.00;86.90
22379;DHT22;11357;49.990;7.370;2023-02-15T00:41:43;3.00;86.90
22379;DHT22;11357;49.990;7.370;2023-02-15T00:44:09;3.00;87.00
22379;DHT22;11357;49.990;7.370;2023-02-15T00:46:35;3.00;87.00
22379;DHT22;11357;49.990;7.370;2023-02-15T00:49:02;3.00;86.90
22379;DHT22;11357;49.990;7.370;2023-02-15T00:51:28;3.00;87.00
22379;DHT22;11357;49.990;7.370;2023-02-15T00:53:54;3.00;86.90
22379;DHT22;11357;49.990;7.370;2023-02-15T00:56:19;3.00;86.80
22379;DHT22;11357;49.990;7.370;2023-02-15T00:58:45;3.00;86.70
22379;DHT22;11357;49.990;7.370;2023-02-15T01:01:15;3.00;86.80
22379;DHT22;11357;49.990;7.370;2023-02-15T01:03:41;3.00;86.80
22379;DHT22;11357;49.990;7.370;2023-02-15T01:06:07;3.00;86.80
22379;DHT22;11357;49.990;7.370;2023-02-15T01:08:33;3.00;86.80
22379;DHT22;11357;49.990;7.370;2023-02-15T01:11:13;3.00;86.90
22379;DHT22;11357;49.990;7.370;2023-02-15T01:13:40;2.90;86.90
22379;DHT22;11357;49.990;7.370;2023-02-15T01:16:06;3.00;86.90
22379;DHT22;11357;49.990;7.370;2023-02-15T01:18:32;3.00;86.90
22379;DHT22;11357;49.990;7.370;2023-02-15T01:20:58;3.00;86.90
22379;DHT22;11357;49.990;7.370;2023-02-15T01:23:23;2.90;86.80
22379;DHT22;11357;49.990;7.370;2023-02-15T01:25:49;2.90;86.90
22379;DHT22;11357;49.990;7.370;2023-02-15T01:28:15;2.90;86.90
22379;DHT22;11357;49.990;7.370;2023-02-15T01:30:41;2.90;86.80
22379;DHT22;11357;49.990;7.370;2023-02-15T01:33:07;2.90;86.80
22379;DHT22;11357;49.990;7.370;2023-02-15T01:35:32;2.90;86.80
22379;DHT22;11357;49.990;7.370;2023-02-15T01:37:58;2.80;86.70
22379;DHT22;11357;49.990;7.370;2023-02-15T01:40:24;2.80;86.70
22379;DHT22;11357;49.990;7.370;2023-02-15T01:42:54;2.80;86.80
22379;DHT22;11357;49.990;7.370;2023-02-15T01:45:30;2.80;86.80
22379;DHT22;11357;49.990;7.370;2023-02-15T01:50:41;2.80;86.80
22379;DHT22;11357;49.990;7.370;2023-02-15T01:53:21;2.80;86.80
22379;DHT22;11357;49.990;7.370;2023-02-15T01:58:23;2.80;86.60
22379;DHT22;11357;49.990;7.370;2023-02-15T02:00:49;2.70;86.70
22379;DHT22;11357;49.990;7.370;2023-02-15T02:03:15;2.70;86.80
22379;DHT22;11357;49.990;7.370;2023-02-15T02:05:41;2.70;86.80
22379;DHT22;11357;49.990;7.370;2023-02-15T02:08:07;2.70;86.90
22379;DHT22;11357;49.990;7.370;2023-02-15T02:10:36;2.70;86.90
22379;DHT22;11357;49.990;7.370;2023-02-15T02:13:05;2.80;86.90
22379;DHT22;11357;49.990;7.370;2023-02-15T02:15:45;2.80;86.80
22379;DHT22;11357;49.990;7.370;2023-02-15T02:18:41;2.80;86.70
22379;DHT22;11357;49.990;7.370;2023-02-15T02:32:24;2.90;86.60
22379;DHT22;11357;49.990;7.370;2023-02-15T02:35:00;2.90;86.40
22379;DHT22;11357;49.990;7.370;2023-02-15T02:37:45;2.90;86.40
22379;DHT22;11357;49.990;7.370;2023-02-15T02:40:20;2.90;86.50
22379;DHT22;11357;49.990;7.370;2023-02-15T02:42:56;2.90;86.40
22379;DHT22;11357;49.990;7.370;2023-02-15T02:45:28;2.80;86.30
22379;DHT22;11357;49.990;7.370;2023-02-15T02:48:03;2.80;86.30
22379;DHT22;11357;49.990;7.370;2023-02-15T02:50:31;2.70;86.30
22379;DHT22;11357;49.990;7.370;2023-02-15T02:52:58;2.70;86.40
22379;DHT22;11357;49.990;7.370;2023-02-15T02:55:49;2.70;86.50
22379;DHT22;11357;49.990;7.370;2023-02-15T03:01:21;2.60;86.40
22379;DHT22;11357;49.990;7.370;2023-02-15T03:03:59;2.60;86.40
22379;DHT22;11357;49.990;7.370;2023-02-15T03:06:39;2.60;86.50
22379;DHT22;11357;49.990;7.370;2023-02-15T03:09:11;2.50;86.70
22379;DHT22;11357;49.990;7.370;2023-02-15T03:11:47;2.50;86.70
22379;DHT22;11357;49.990;7.370;2023-02-15T03:14:15;2.50;86.70
22379;DHT22;11357;49.990;7.370;2023-02-15T03:16:43;2.50;86.80
22379;DHT22;11357;49.990;7.370;2023-02-15T03:19:47;2.60;86.80
22379;DHT22;11357;49.990;7.370;2023-02-15T03:22:26;2.60;86.90
22379;DHT22;11357;49.990;7.370;2023-02-15T03:25:05;2.70;86.90
22379;DHT22;11357;49.990;7.370;2023-02-15T03:27:36;2.70;86.90
22379;DHT22;11357;49.990;7.370;2023-02-15T03:30:04;2.70;86.80
22379;DHT22;11357;49.990;7.370;2023-02-15T03:32:32;2.80;86.90
22379;DHT22;11357;49.990;7.370;2023-02-15T03:34:58;2.80;86.80
22379;DHT22;11357;49.990;7.370;2023-02-15T03:40:15;2.80;87.00
22379;DHT22;11357;49.990;7.370;2023-02-15T03:43:06;2.80;86.90
22379;DHT22;11357;49.990;7.370;2023-02-15T03:45:34;2.90;87.00
22379;DHT22;11357;49.990;7.370;2023-02-15T03:48:03;2.90;87.00
22379;DHT22;11357;49.990;7.370;2023-02-15T03:50:32;3.00;87.00
22379;DHT22;11357;49.990;7.370;2023-02-15T03:53:21;3.00;86.90
22379;DHT22;11357;49.990;7.370;2023-02-15T03:55:54;3.00;86.90
22379;DHT22;11357;49.990;7.370;2023-02-15T03:58:21;3.00;86.80
22379;DHT22;11357;49.990;7.370;2023-02-15T04:01:31;3.00;86.90
22379;DHT22;11357;49.990;7.370;2023-02-15T04:04:20;3.00;87.00
22379;DHT22;11357;49.990;7.370;2023-02-15T04:06:46;3.00;86.80
22379;DHT22;11357;49.990;7.370;2023-02-15T04:09:13;3.00;86.90
22379;DHT22;11357;49.990;7.370;2023-02-15T04:11:57;2.90;86.90
22379;DHT22;11357;49.990;7.370;2023-02-15T04:14:23;3.00;87.00
22379;DHT22;11357;49.990;7.370;2023-02-15T04:17:08;2.90;87.00
22379;DHT22;11357;49.990;7.370;2023-02-15T04:19:34;3.00;87.10
22379;DHT22;11357;49.990;7.370;2023-02-15T04:22:20;3.00;87.10
22379;DHT22;11357;49.990;7.370;2023-02-15T04:25:04;3.00;87.00
22379;DHT22;11357;49.990;7.370;2023-02-15T04:27:41;2.90;87.00
22379;DHT22;11357;49.990;7.370;2023-02-15T04:30:08;2.90;87.10
22379;DHT22;11357;49.990;7.370;2023-02-15T04:32:34;2.90;87.20
22379;DHT22;11357;49.990;7.370;2023-02-15T04:35:00;2.90;87.10
22379;DHT22;11357;49.990;7.370;2023-02-15T04:37:25;2.90;87.10
22379;DHT22;11357;49.990;7.370;2023-02-15T04:39:51;2.80;87.10
22379;DHT22;11357;49.990;7.370;2023-02-15T04:42:17;2.80;87.30
22379;DHT22;11357;49.990;7.370;2023-02-15T04:44:42;2.70;87.40
22379;DHT22;11357;49.990;7.370;2023-02-15T04:47:08;2.70;87.40
22379;DHT22;11357;49.990;7.370;2023-02-15T04:49:34;2.70;87.50
22379;DHT22;11357;49.990;7.370;2023-02-15T04:52:00;2.70;87.50
22379;DHT22;11357;49.990;7.370;2023-02-15T04:54:25;2.70;87.50
22379;DHT22;11357;49.990;7.370;2023-02-15T04:56:51;2.70;87.60
22379;DHT22;11357;49.990;7.370;2023-02-15T04:59:17;2.70;87.60
22379;DHT22;11357;49.990;7.370;2023-02-15T05:01:42;2.70;87.60
22379;DHT22;11357;49.990;7.370;2023-02-15T05:04:08;2.80;87.60
22379;DHT22;11357;49.990;7.370;2023-02-15T05:06:34;2.70;88.20
22379;DHT22;11357;49.990;7.370;2023-02-15T05:09:00;2.70;87.50
22379;DHT22;11357;49.990;7.370;2023-02-15T05:11:26;2.70;87.60
22379;DHT22;11357;49.990;7.370;2023-02-15T05:13:51;2.70;87.60
22379;DHT22;11357;49.990;7.370;2023-02-15T05:16:17;2.80;87.60
22379;DHT22;11357;49.990;7.370;2023-02-15T05:18:43;2.80;87.50
22379;DHT22;11357;49.990;7.370;2023-02-15T05:21:09;2.80;87.40
22379;DHT22;11357;49.990;7.370;2023-02-15T05:23:35;2.80;87.30
22379;DHT22;11357;49.990;7.370;2023-02-15T05:26:01;2.80;87.40
22379;DHT22;11357;49.990;7.370;2023-02-15T05:28:45;2.70;87.30
22379;DHT22;11357;49.990;7.370;2023-02-15T05:31:18;2.70;87.40
22379;DHT22;11357;49.990;7.370;2023-02-15T05:33:44;2.70;87.50
22379;DHT22;11357;49.990;7.370;2023-02-15T05:36:10;2.70;87.50
22379;DHT22;11357;49.990;7.370;2023-02-15T05:38:36;2.70;87.50
22379;DHT22;11357;49.990;7.370;2023-02-15T05:41:03;2.70;87.60
22379;DHT22;11357;49.990;7.370;2023-02-15T05:43:30;2.70;87.60
22379;DHT22;11357;49.990;7.370;2023-02-15T05:45:56;2.80;87.60
22379;DHT22;11357;49.990;7.370;2023-02-15T05:48:23;2.80;87.60
22379;DHT22;11357;49.990;7.370;2023-02-15T05:50:59;2.80;87.50
22379;DHT22;11357;49.990;7.370;2023-02-15T05:53:26;2.80;87.50
22379;DHT22;11357;49.990;7.370;2023-02-15T05:55:52;2.80;87.50
22379;DHT22;11357;49.990;7.370;2023-02-15T05:58:19;2.80;87.60
22379;DHT22;11357;49.990;7.370;2023-02-15T06:00:45;2.80;87.70
22379;DHT22;11357;49.990;7.370;2023-02-15T06:03:11;2.80;87.70
22379;DHT22;11357;49.990;7.370;2023-02-15T06:05:36;2.90;87.70
22379;DHT22;11357;49.990;7.370;2023-02-15T06:08:02;2.90;87.60
22379;DHT22;11357;49.990;7.370;2023-02-15T06:10:28;2.90;87.50
22379;DHT22;11357;49.990;7.370;2023-02-15T06:12:53;2.90;87.60
22379;DHT22;11357;49.990;7.370;2023-02-15T06:15:19;2.90;87.70
22379;DHT22;11357;49.990;7.370;2023-02-15T06:17:45;2.90;87.70
22379;DHT22;11357;49.990;7.370;2023-02-15T06:20:11;2.90;87.70
22379;DHT22;11357;49.990;7.370;2023-02-15T06:22:36;2.90;87.80
22379;DHT22;11357;49.990;7.370;2023-02-15T06:25:02;3.00;87.80
22379;DHT22;11357;49.990;7.370;2023-02-15T06:27:29;3.00;87.80
22379;DHT22;11357;49.990;7.370;2023-02-15T06:29:54;3.10;87.80
22379;DHT22;11357;49.990;7.370;2023-02-15T06:32:20;3.10;87.80
22379;DHT22;11357;49.990;7.370;2023-02-15T06:34:45;3.10;87.80
22379;DHT22;11357;49.990;7.370;2023-02-15T06:37:11;3.20;87.80
22379;DHT22;11357;49.990;7.370;2023-02-15T06:39:37;3.20;87.80
22379;DHT22;11357;49.990;7.370;2023-02-15T06:42:02;3.20;87.80
22379;DHT22;11357;49.990;7.370;2023-02-15T06:44:28;3.30;87.60
22379;DHT22;11357;49.990;7.370;2023-02-15T06:46:54;3.20;87.50
22379;DHT22;11357;49.990;7.370;2023-02-15T06:49:19;3.20;87.60
22379;DHT22;11357;49.990;7.370;2023-02-15T06:51:45;3.20;88.40
22379;DHT22;11357;49.990;7.370;2023-02-15T06:54:11;3.20;87.80
22379;DHT22;11357;49.990;7.370;2023-02-15T06:56:36;3.20;87.70
22379;DHT22;11357;49.990;7.370;2023-02-15T06:59:02;3.30;87.70
22379;DHT22;11357;49.990;7.370;2023-02-15T07:01:28;3.30;87.60
22379;DHT22;11357;49.990;7.370;2023-02-15T07:03:53;3.40;87.60
22379;DHT22;11357;49.990;7.370;2023-02-15T07:06:19;3.30;88.20
22379;DHT22;11357;49.990;7.370;2023-02-15T07:08:45;3.30;87.50
22379;DHT22;11357;49.990;7.370;2023-02-15T07:11:10;3.30;87.50
22379;DHT22;11357;49.990;7.370;2023-02-15T07:13:55;3.40;87.60
22379;DHT22;11357;49.990;7.370;2023-02-15T07:16:20;3.30;87.60
22379;DHT22;11357;49.990;7.370;2023-02-15T07:18:46;3.40;87.80
22379;DHT22;11357;49.990;7.370;2023-02-15T07:21:12;3.50;87.80
22379;DHT22;11357;49.990;7.370;2023-02-15T07:23:38;3.50;87.60
22379;DHT22;11357;49.990;7.370;2023-02-15T07:26:05;3.50;87.60
22379;DHT22;11357;49.990;7.370;2023-02-15T07:28:32;3.50;87.70
22379;DHT22;11357;49.990;7.370;2023-02-15T07:30:58;3.60;87.80
22379;DHT22;11357;49.990;7.370;2023-02-15T07:33:23;3.60;87.80
22379;DHT22;11357;49.990;7.370;2023-02-15T07:36:01;3.70;87.80
22379;DHT22;11357;49.990;7.370;2023-02-15T07:38:30;3.70;87.70
22379;DHT22;11357;49.990;7.370;2023-02-15T07:41:00;3.80;87.70
22379;DHT22;11357;49.990;7.370;2023-02-15T07:43:26;3.90;87.70
22379;DHT22;11357;49.990;7.370;2023-02-15T07:45:52;4.00;87.50
22379;DHT22;11357;49.990;7.370;2023-02-15T07:48:17;4.10;87.50
22379;DHT22;11357;49.990;7.370;2023-02-15T07:50:43;4.10;87.40
22379;DHT22;11357;49.990;7.370;2023-02-15T07:53:09;4.20;87.30
22379;DHT22;11357;49.990;7.370;2023-02-15T07:55:34;4.30;87.30
22379;DHT22;11357;49.990;7.370;2023-02-15T07:58:00;4.40;87.20
22379;DHT22;11357;49.990;7.370;2023-02-15T08:00:26;4.40;87.20
22379;DHT22;11357;49.990;7.370;2023-02-15T08:02:54;4.50;87.20
22379;DHT22;11357;49.990;7.370;2023-02-15T08:05:43;4.50;87.10
22379;DHT22;11357;49.990;7.370;2023-02-15T08:08:10;4.60;87.00
22379;DHT22;11357;49.990;7.370;2023-02-15T08:13:50;4.80;86.90
22379;DHT22;11357;49.990;7.370;2023-02-15T08:16:28;4.90;86.90
22379;DHT22;11357;49.990;7.370;2023-02-15T08:18:55;4.90;87.50
22379;DHT22;11357;49.990;7.370;2023-02-15T08:21:21;5.00;86.80
22379;DHT22;11357;49.990;7.370;2023-02-15T08:23:47;5.10;86.80
22379;DHT22;11357;49.990;7.370;2023-02-15T08:26:13;5.10;86.70
22379;DHT22;11357;49.990;7.370;2023-02-15T08:28:40;5.20;86.80
22379;DHT22;11357;49.990;7.370;2023-02-15T08:31:11;5.20;86.70
22379;DHT22;11357;49.990;7.370;2023-02-15T08:33:39;5.30;86.60
22379;DHT22;11357;49.990;7.370;2023-02-15T08:36:07;5.40;86.50
22379;DHT22;11357;49.990;7.370;2023-02-15T08:38:33;5.40;86.30
22379;DHT22;11357;49.990;7.370;2023-02-15T08:41:22;5.40;86.30
22379;DHT22;11357;49.990;7.370;2023-02-15T08:43:50;5.40;86.50
22379;DHT22;11357;49.990;7.370;2023-02-15T08:46:18;5.50;86.40
22379;DHT22;11357;49.990;7.370;2023-02-15T08:48:45;5.40;86.40
22379;DHT22;11357;49.990;7.370;2023-02-15T08:51:19;5.50;86.30
22379;DHT22;11357;49.990;7.370;2023-02-15T08:53:47;5.50;86.30
22379;DHT22;11357;49.990;7.370;2023-02-15T08:56:18;5.60;86.20
22379;DHT22;11357;49.990;7.370;2023-02-15T08:58:44;5.70;86.10
22379;DHT22;11357;49.990;7.370;2023-02-15T09:01:11;5.80;86.00
22379;DHT22;11357;49.990;7.370;2023-02-15T09:03:38;5.80;86.00
22379;DHT22;11357;49.990;7.370;2023-02-15T09:06:04;5.90;86.00
22379;DHT22;11357;49.990;7.370;2023-02-15T09:08:30;5.90;85.80
22379;DHT22;11357;49.990;7.370;2023-02-15T09:11:16;6.00;85.90
22379;DHT22;11357;49.990;7.370;2023-02-15T09:13:48;6.00;85.90
22379;DHT22;11357;49.990;7.370;2023-02-15T09:16:15;6.20;85.70
22379;DHT22;11357;49.990;7.370;2023-02-15T09:18:42;6.30;85.60
22379;DHT22;11357;49.990;7.370;2023-02-15T09:21:13;6.40;85.40
22379;DHT22;11357;49.990;7.370;2023-02-15T09:23:41;6.50;85.30
22379;DHT22;11357;49.990;7.370;2023-02-15T09:26:18;6.60;85.20
22379;DHT22;11357;49.990;7.370;2023-02-15T09:28:44;6.80;85.00
22379;DHT22;11357;49.990;7.370;2023-02-15T09:31:11;7.00;85.00
22379;DHT22;11357;49.990;7.370;2023-02-15T09:33:38;7.20;84.60
22379;DHT22;11357;49.990;7.370;2023-02-15T09:36:12;7.20;84.30
22379;DHT22;11357;49.990;7.370;2023-02-15T09:38:38;7.40;84.30
22379;DHT22;11357;49.990;7.370;2023-02-15T09:44:05;7.50;83.70
22379;DHT22;11357;49.990;7.370;2023-02-15T09:54:39;7.40;84.00
22379;DHT22;11357;49.990;7.370;2023-02-15T09:57:32;7.40;84.00
22379;DHT22;11357;49.990;7.370;2023-02-15T10:00:12;7.50;84.10
22379;DHT22;11357;49.990;7.370;2023-02-15T10:03:04;7.90;84.00
22379;DHT22;11357;49.990;7.370;2023-02-15T10:05:53;8.20;83.60
22379;DHT22;11357;49.990;7.370;2023-02-15T10:11:11;8.80;82.70
22379;DHT22;11357;49.990;7.370;2023-02-15T10:16:45;9.20;82.00
22379;DHT22;11357;49.990;7.370;2023-02-15T10:25:31;9.40;81.30
22379;DHT22;11357;49.990;7.370;2023-02-15T10:28:05;9.40;81.10
22379;DHT22;11357;49.990;7.370;2023-02-15T10:47:20;9.40;80.90
22379;DHT22;11357;49.990;7.370;2023-02-15T11:04:29;11.20;78.30
22379;DHT22;11357;49.990;7.370;2023-02-15T11:07:30;11.50;77.70
22379;DHT22;11357;49.990;7.370;2023-02-15T11:12:40;12.30;76.40
22379;DHT22;11357;49.990;7.370;2023-02-15T11:20:49;13.30;74.90
22379;DHT22;11357;49.990;7.370;2023-02-15T11:23:16;13.60;74.30
22379;DHT22;11357;49.990;7.370;2023-02-15T11:25:46;14.00;73.70
22379;DHT22;11357;49.990;7.370;2023-02-15T11:28:22;14.20;73.10
22379;DHT22;11357;49.990;7.370;2023-02-15T11:30:55;14.50;72.50
22379;DHT22;11357;49.990;7.370;2023-02-15T11:33:35;14.50;71.40
22379;DHT22;11357;49.990;7.370;2023-02-15T11:36:28;14.40;70.50
22379;DHT22;11357;49.990;7.370;2023-02-15T11:39:02;14.10;70.30
22379;DHT22;11357;49.990;7.370;2023-02-15T11:41:36;13.50;70.70
22379;DHT22;11357;49.990;7.370;2023-02-15T11:44:13;12.80;71.90
22379;DHT22;11357;49.990;7.370;2023-02-15T11:46:41;12.40;73.30
22379;DHT22;11357;49.990;7.370;2023-02-15T11:49:32;12.10;74.00
22379;DHT22;11357;49.990;7.370;2023-02-15T11:52:02;11.70;74.80
22379;DHT22;11357;49.990;7.370;2023-02-15T11:54:31;11.50;75.40
22379;DHT22;11357;49.990;7.370;2023-02-15T11:57:33;11.40;75.90
22379;DHT22;11357;49.990;7.370;2023-02-15T12:00:19;11.20;76.80
22379;DHT22;11357;49.990;7.370;2023-02-15T12:02:52;11.10;77.10
22379;DHT22;11357;49.990;7.370;2023-02-15T12:05:22;11.00;77.50
22379;DHT22;11357;49.990;7.370;2023-02-15T12:08:01;10.90;77.80
22379;DHT22;11357;49.990;7.370;2023-02-15T12:10:34;10.90;78.10
22379;DHT22;11357;49.990;7.370;2023-02-15T12:13:18;10.90;78.50
22379;DHT22;11357;49.990;7.370;2023-02-15T12:15:53;10.90;78.70
22379;DHT22;11357;49.990;7.370;2023-02-15T12:20:59;11.00;78.90
22379;DHT22;11357;49.990;7.370;2023-02-15T12:23:28;11.00;79.10
22379;DHT22;11357;49.990;7.370;2023-02-15T12:25:55;11.00;79.20
22379;DHT22;11357;49.990;7.370;2023-02-15T12:28:36;10.90;79.20
22379;DHT22;11357;49.990;7.370;2023-02-15T12:31:09;10.90;79.30
22379;DHT22;11357;49.990;7.370;2023-02-15T12:33:39;10.90;79.30
22379;DHT22;11357;49.990;7.370;2023-02-15T12:36:15;10.90;79.60
22379;DHT22;11357;49.990;7.370;2023-02-15T12:38:42;10.90;79.90
22379;DHT22;11357;49.990;7.370;2023-02-15T12:41:26;11.00;79.90
22379;DHT22;11357;49.990;7.370;2023-02-15T12:46:29;11.10;79.90
22379;DHT22;11357;49.990;7.370;2023-02-15T12:49:16;11.10;79.80
22379;DHT22;11357;49.990;7.370;2023-02-15T12:52:04;11.20;79.90
22379;DHT22;11357;49.990;7.370;2023-02-15T12:54:39;11.20;79.90
22379;DHT22;11357;49.990;7.370;2023-02-15T12:57:31;11.20;79.60
22379;DHT22;11357;49.990;7.370;2023-02-15T13:02:54;11.20;80.60
22379;DHT22;11357;49.990;7.370;2023-02-15T13:08:08;11.10;79.80
22379;DHT22;11357;49.990;7.370;2023-02-15T13:10:39;11.10;79.60
22379;DHT22;11357;49.990;7.370;2023-02-15T13:13:18;11.10;79.60
22379;DHT22;11357;49.990;7.370;2023-02-15T13:15:49;11.10;79.70
22379;DHT22;11357;49.990;7.370;2023-02-15T13:21:09;11.20;79.70
22379;DHT22;11357;49.990;7.370;2023-02-15T13:23:38;11.20;79.50
22379;DHT22;11357;49.990;7.370;2023-02-15T13:26:10;11.30;79.60
22379;DHT22;11357;49.990;7.370;2023-02-15T13:28:42;11.30;80.00
22379;DHT22;11357;49.990;7.370;2023-02-15T13:31:19;11.30;80.20
22379;DHT22;11357;49.990;7.370;2023-02-15T13:33:51;11.40;80.40
22379;DHT22;11357;49.990;7.370;2023-02-15T13:41:47;11.40;80.50
22379;DHT22;11357;49.990;7.370;2023-02-15T13:46:58;11.40;80.50
22379;DHT22;11357;49.990;7.370;2023-02-15T13:50:00;11.40;80.50
22379;DHT22;11357;49.990;7.370;2023-02-15T13:52:28;11.40;80.50
22379;DHT22;11357;49.990;7.370;2023-02-15T14:00:47;11.40;80.30
22379;DHT22;11357;49.990;7.370;2023-02-15T14:06:04;11.50;80.30
22379;DHT22;11357;49.990;7.370;2023-02-15T14:08:54;11.50;80.40
22379;DHT22;11357;49.990;7.370;2023-02-15T14:14:03;11.50;79.80
22379;DHT22;11357;49.990;7.370;2023-02-15T14:27:45;11.40;80.20
22379;DHT22;11357;49.990;7.370;2023-02-15T14:30:24;11.40;80.20
22379;DHT22;11357;49.990;7.370;2023-02-15T14:32:57;11.40;80.10
22379;DHT22;11357;49.990;7.370;2023-02-15T14:35:28;11.50;80.10
22379;DHT22;11357;49.990;7.370;2023-02-15T14:38:35;11.50;80.00
22379;DHT22;11357;49.990;7.370;2023-02-15T14:41:18;11.50;80.20
22379;DHT22;11357;49.990;7.370;2023-02-15T14:49:12;11.60;80.60
22379;DHT22;11357;49.990;7.370;2023-02-15T14:54:07;11.50;80.50
22379;DHT22;11357;49.990;7.370;2023-02-15T14:56:33;11.50;80.70
22379;DHT22;11357;49.990;7.370;2023-02-15T14:59:08;11.50;80.60
22379;DHT22;11357;49.990;7.370;2023-02-15T15:01:38;11.50;80.60
22379;DHT22;11357;49.990;7.370;2023-02-15T15:04:26;11.40;80.60
22379;DHT22;11357;49.990;7.370;2023-02-15T15:09:41;11.30;80.60
22379;DHT22;11357;49.990;7.370;2023-02-15T15:14:52;11.10;80.50
22379;DHT22;11357;49.990;7.370;2023-02-15T15:20:12;10.90;80.60
22379;DHT22;11357;49.990;7.370;2023-02-15T15:22:43;10.80;80.60
22379;DHT22;11357;49.990;7.370;2023-02-15T15:27:59;10.60;80.80
22379;DHT22;11357;49.990;7.370;2023-02-15T15:43:29;10.20;81.00
22379;DHT22;11357;49.990;7.370;2023-02-15T15:48:35;10.10;80.80
22379;DHT22;11357;49.990;7.370;2023-02-15T15:51:35;10.00;80.80
22379;DHT22;11357;49.990;7.370;2023-02-15T15:54:04;10.00;80.90
22379;DHT22;11357;49.990;7.370;2023-02-15T15:56:35;10.00;80.80
22379;DHT22;11357;49.990;7.370;2023-02-15T15:59:14;9.90;80.70
22379;DHT22;11357;49.990;7.370;2023-02-15T16:01:43;9.80;80.90
22379;DHT22;11357;49.990;7.370;2023-02-15T16:04:30;9.80;81.00
22379;DHT22;11357;49.990;7.370;2023-02-15T16:06:57;9.70;81.20
22379;DHT22;11357;49.990;7.370;2023-02-15T16:09:25;9.70;81.10
22379;DHT22;11357;49.990;7.370;2023-02-15T16:11:56;9.60;81.00
22379;DHT22;11357;49.990;7.370;2023-02-15T16:14:32;9.50;81.00
22379;DHT22;11357;49.990;7.370;2023-02-15T16:17:02;9.50;81.00
22379;DHT22;11357;49.990;7.370;2023-02-15T16:19:33;9.40;81.10
22379;DHT22;11357;49.990;7.370;2023-02-15T16:22:01;9.20;81.40
22379;DHT22;11357;49.990;7.370;2023-02-15T16:27:39;8.90;81.70
22379;DHT22;11357;49.990;7.370;2023-02-15T16:30:24;8.80;81.90
22379;DHT22;11357;49.990;7.370;2023-02-15T16:32:53;8.80;82.00
22379;DHT22;11357;49.990;7.370;2023-02-15T16:35:20;8.70;82.00
22379;DHT22;11357;49.990;7.370;2023-02-15T16:37:46;8.70;82.10
22379;DHT22;11357;49.990;7.370;2023-02-15T16:42:52;8.50;82.20
22379;DHT22;11357;49.990;7.370;2023-02-15T16:45:23;8.40;82.10
22379;DHT22;11357;49.990;7.370;2023-02-15T16:47:51;8.30;82.10
22379;DHT22;11357;49.990;7.370;2023-02-15T16:50:34;8.10;82.30
22379;DHT22;11357;49.990;7.370;2023-02-15T16:53:02;8.00;82.60
22379;DHT22;11357;49.990;7.370;2023-02-15T16:55:37;8.00;82.70
22379;DHT22;11357;49.990;7.370;2023-02-15T17:00:39;7.90;82.80
22379;DHT22;11357;49.990;7.370;2023-02-15T17:05:51;7.80;82.80
22379;DHT22;11357;49.990;7.370;2023-02-15T17:08:35;7.80;82.80
22379;DHT22;11357;49.990;7.370;2023-02-15T17:11:12;7.70;82.80
22379;DHT22;11357;49.990;7.370;2023-02-15T17:13:39;7.70;82.70
22379;DHT22;11357;49.990;7.370;2023-02-15T17:18:50;7.50;82.80
22379;DHT22;11357;49.990;7.370;2023-02-15T17:21:20;7.50;82.90
22379;DHT22;11357;49.990;7.370;2023-02-15T17:23:52;7.40;82.80
22379;DHT22;11357;49.990;7.370;2023-02-15T17:26:24;7.30;83.00
22379;DHT22;11357;49.990;7.370;2023-02-15T17:28:56;7.20;83.10
22379;DHT22;11357;49.990;7.370;2023-02-15T17:31:25;7.20;83.20
22379;DHT22;11357;49.990;7.370;2023-02-15T17:33:54;7.20;83.20
22379;DHT22;11357;49.990;7.370;2023-02-15T17:36:23;7.10;83.40
22379;DHT22;11357;49.990;7.370;2023-02-15T17:41:34;6.90;83.50
22379;DHT22;11357;49.990;7.370;2023-02-15T17:44:03;6.80;83.60
22379;DHT22;11357;49.990;7.370;2023-02-15T17:46:34;6.80;83.80
22379;DHT22;11357;49.990;7.370;2023-02-15T17:49:01;6.70;83.90
22379;DHT22;11357;49.990;7.370;2023-02-15T17:51:28;6.70;84.00
22379;DHT22;11357;49.990;7.370;2023-02-15T17:53:54;6.60;84.20
22379;DHT22;11357;49.990;7.370;2023-02-15T17:56:38;6.70;84.20
22379;DHT22;11357;49.990;7.370;2023-02-15T17:59:04;6.70;84.20
22379;DHT22;11357;49.990;7.370;2023-02-15T18:01:33;6.70;84.20
22379;DHT22;11357;49.990;7.370;2023-02-15T18:04:24;6.60;84.10
22379;DHT22;11357;49.990;7.370;2023-02-15T18:07:09;6.40;84.30
22379;DHT22;11357;49.990;7.370;2023-02-15T18:09:55;6.20;84.90
22379;DHT22;11357;49.990;7.370;2023-02-15T18:12:39;6.10;84.60
22379;DHT22;11357;49.990;7.370;2023-02-15T18:15:06;5.90;84.70
22379;DHT22;11357;49.990;7.370;2023-02-15T18:17:42;5.80;84.90
22379;DHT22;11357;49.990;7.370;2023-02-15T18:22:43;5.50;85.20
22379;DHT22;11357;49.990;7.370;2023-02-15T18:25:15;5.50;85.20
22379;DHT22;11357;49.990;7.370;2023-02-15T18:27:41;5.50;85.30
22379;DHT22;11357;49.990;7.370;2023-02-15T18:30:13;5.60;85.30
22379;DHT22;11357;49.990;7.370;2023-02-15T18:32:40;5.70;85.30
22379;DHT22;11357;49.990;7.370;2023-02-15T18:35:09;5.80;85.20
22379;DHT22;11357;49.990;7.370;2023-02-15T18:37:38;5.80;85.10
22379;DHT22;11357;49.990;7.370;2023-02-15T18:40:04;5.90;84.90
22379;DHT22;11357;49.990;7.370;2023-02-15T18:42:33;5.90;84.90
22379;DHT22;11357;49.990;7.370;2023-02-15T18:45:19;5.90;84.90
22379;DHT22;11357;49.990;7.370;2023-02-15T18:47:46;5.90;84.90
22379;DHT22;11357;49.990;7.370;2023-02-15T18:50:16;5.90;84.80
22379;DHT22;11357;49.990;7.370;2023-02-15T18:52:44;5.90;84.70
22379;DHT22;11357;49.990;7.370;2023-02-15T18:57:48;5.90;84.70
22379;DHT22;11357;49.990;7.370;2023-02-15T19:00:19;5.90;84.60
22379;DHT22;11357;49.990;7.370;2023-02-15T19:02:46;5.80;84.40
22379;DHT22;11357;49.990;7.370;2023-02-15T19:05:12;5.60;84.40
22379;DHT22;11357;49.990;7.370;2023-02-15T19:07:38;5.50;84.40
22379;DHT22;11357;49.990;7.370;2023-02-15T19:10:05;5.40;84.50
22379;DHT22;11357;49.990;7.370;2023-02-15T19:12:33;5.30;84.50
22379;DHT22;11357;49.990;7.370;2023-02-15T19:15:01;5.30;84.60